Time;durP1;ratioP1;P1;durP2;ratioP2;P2;SDS_P1;SDS_P2;PMS_P1;PMS_P2;Temp;Humidity;BMP_temperature;BMP_pressure;BME280_temperature;BME280_humidity;BME280_pressure;Samples;Min_cycle;Max_cycle;Signal;HPM_P1;HPM_P2
2022/07/21 00:00:06;;;;;;;2.78;1.90;;;;;;;;;;4963033;28;20038;-71
2022/07/21 00:02:32;;;;;;;5.95;1.70;;;;;;;;;;4962164;28;20046;-70
2022/07/21 00:04:57;;;;;;;7.18;1.90;;;;;;;;;;4963455;28;20038;-70
2022/07/21 00:07:23;;;;;;;8.18;2.10;;;;;;;;;;4964953;28;20038;-70
2022/07/21 00:09:48;;;;;;;5.75;2.10;;;;;;;;;;4966566;28;20047;-70
2022/07/21 00:12:14;;;;;;;5.88;1.98;;;;;;;;;;4962639;28;20491;-70
2022/07/21 00:14:39;;;;;;;5.00;2.00;;;;;;;;;;4962637;28;20116;-70
2022/07/21 00:17:04;;;;;;;8.38;2.20;;;;;;;;;;4962250;28;20077;-70
2022/07/21 00:19:30;;;;;;;11.63;2.10;;;;;;;;;;4962892;28;20122;-70
2022/07/21 00:21:55;;;;;;;2.70;2.00;;;;;;;;;;4962762;28;20042;-70
2022/07/21 00:24:21;;;;;;;3.20;1.80;;;;;;;;;;4962067;28;20038;-70
2022/07/21 00:26:46;;;;;;;2.85;2.30;;;;;;;;;;4962073;28;20043;-70
2022/07/21 00:29:12;;;;;;;3.95;1.80;;;;;;;;;;4961332;28;20034;-70
2022/07/21 00:31:37;;;;;;;4.20;2.10;;;;;;;;;;4962633;28;20050;-70
2022/07/21 00:34:03;;;;;;;3.70;2.45;;;;;;;;;;4961839;28;20035;-70
2022/07/21 00:36:28;;;;;;;3.90;2.00;;;;;;;;;;4962131;28;20088;-70
2022/07/21 00:38:53;;;;;;;2.65;2.05;;;;;;;;;;4962597;28;20113;-70
2022/07/21 00:41:19;;;;;;;3.50;2.00;;;;;;;;;;4962548;28;20109;-70
2022/07/21 00:43:44;;;;;;;6.68;2.30;;;;;;;;;;4962485;28;20042;-70
2022/07/21 00:46:10;;;;;;;4.45;2.10;;;;;;;;;;4961248;28;20180;-70
2022/07/21 00:48:35;;;;;;;3.42;2.17;;;;;;;;;;4962420;28;20038;-71
2022/07/21 00:51:01;;;;;;;6.28;2.20;;;;;;;;;;4962395;28;20054;-70
2022/07/21 00:53:26;;;;;;;2.85;2.08;;;;;;;;;;4962713;28;20038;-70
2022/07/21 00:55:52;;;;;;;2.72;2.10;;;;;;;;;;4962395;28;20047;-70
2022/07/21 00:58:18;;;;;;;4.65;2.35;;;;;;;;;;4962268;28;20070;-70
2022/07/21 01:00:43;;;;;;;4.95;2.63;;;;;;;;;;4964660;28;20050;-71
2022/07/21 01:03:09;;;;;;;5.28;2.42;;;;;;;;;;4964427;28;20030;-70
2022/07/21 01:05:34;;;;;;;4.07;2.03;;;;;;;;;;4966457;28;20487;-70
2022/07/21 01:08:02;;;;;;;6.47;2.55;;;;;;;;;;4963538;28;20027;-70
2022/07/21 01:10:30;;;;;;;4.68;2.50;;;;;;;;;;4966372;28;20046;-70
2022/07/21 01:12:55;;;;;;;4.88;2.28;;;;;;;;;;4966117;28;20129;-70
2022/07/21 01:15:21;;;;;;;3.80;2.10;;;;;;;;;;4964502;28;21009;-70
2022/07/21 01:17:48;;;;;;;2.97;2.15;;;;;;;;;;4964980;28;20031;-70
2022/07/21 01:20:16;;;;;;;6.25;2.00;;;;;;;;;;4965854;28;20616;-70
2022/07/21 01:22:43;;;;;;;3.03;2.50;;;;;;;;;;4964773;28;20399;-70
2022/07/21 01:25:09;;;;;;;8.25;2.53;;;;;;;;;;4964595;28;20042;-70
2022/07/21 01:27:35;;;;;;;7.43;2.47;;;;;;;;;;4961285;28;20042;-71
2022/07/21 01:30:03;;;;;;;5.60;2.20;;;;;;;;;;4964658;28;20498;-70
2022/07/21 01:32:28;;;;;;;4.32;2.22;;;;;;;;;;4965945;28;20042;-70
2022/07/21 01:34:54;;;;;;;4.78;2.30;;;;;;;;;;4965471;28;20038;-70
2022/07/21 01:37:22;;;;;;;6.57;2.45;;;;;;;;;;4965926;28;20026;-70
2022/07/21 01:42:32;;;;;;;6.97;2.28;;;;;;;;;;4964020;28;20093;-70
2022/07/21 01:44:58;;;;;;;7.20;2.30;;;;;;;;;;4965554;28;20034;-70
2022/07/21 01:47:23;;;;;;;3.53;2.60;;;;;;;;;;4965125;28;20030;-70
2022/07/21 01:49:49;;;;;;;4.65;2.58;;;;;;;;;;4965578;28;20504;-70
2022/07/21 01:52:15;;;;;;;3.95;2.45;;;;;;;;;;4963162;28;20039;-70
2022/07/21 01:54:40;;;;;;;11.52;2.92;;;;;;;;;;4965249;28;20042;-70
2022/07/21 01:57:05;;;;;;;5.57;2.75;;;;;;;;;;4965073;28;20030;-70
2022/07/21 01:59:31;;;;;;;4.75;2.15;;;;;;;;;;4965563;28;20118;-70
2022/07/21 02:01:56;;;;;;;4.75;2.50;;;;;;;;;;4964443;28;20097;-70
2022/07/21 02:04:22;;;;;;;4.20;2.70;;;;;;;;;;4965239;28;20093;-70
2022/07/21 02:06:47;;;;;;;6.20;2.30;;;;;;;;;;4964947;28;20420;-71
2022/07/21 02:09:12;;;;;;;3.45;2.50;;;;;;;;;;4965417;28;20038;-70
2022/07/21 02:11:38;;;;;;;5.20;2.40;;;;;;;;;;4964264;28;20041;-71
2022/07/21 02:14:04;;;;;;;5.28;2.80;;;;;;;;;;4963970;28;20038;-70
2022/07/21 02:16:30;;;;;;;4.88;2.92;;;;;;;;;;4964539;28;20035;-70
2022/07/21 02:18:55;;;;;;;3.95;2.38;;;;;;;;;;4964680;28;20047;-70
2022/07/21 02:21:20;;;;;;;3.30;2.72;;;;;;;;;;4964965;28;20079;-71
2022/07/21 02:23:46;;;;;;;6.05;2.75;;;;;;;;;;4963934;28;20101;-71
2022/07/21 02:26:12;;;;;;;6.75;2.97;;;;;;;;;;4964642;28;20404;-70
2022/07/21 02:28:37;;;;;;;6.22;2.95;;;;;;;;;;4964244;28;20045;-70
2022/07/21 02:31:03;;;;;;;6.28;3.00;;;;;;;;;;4964659;28;20122;-70
2022/07/21 02:33:29;;;;;;;5.57;2.85;;;;;;;;;;4964443;28;20271;-70
2022/07/21 02:35:54;;;;;;;3.90;2.63;;;;;;;;;;4963993;28;20038;-70
2022/07/21 02:38:20;;;;;;;4.68;3.00;;;;;;;;;;4964263;28;20411;-70
2022/07/21 02:40:45;;;;;;;5.15;2.85;;;;;;;;;;4965424;28;20026;-70
2022/07/21 02:43:11;;;;;;;5.97;2.75;;;;;;;;;;4966485;28;20102;-70
2022/07/21 02:45:41;;;;;;;6.05;2.55;;;;;;;;;;4964340;28;20045;-70
2022/07/21 02:48:08;;;;;;;4.78;2.55;;;;;;;;;;4963872;28;20111;-70
2022/07/21 02:50:36;;;;;;;4.78;2.97;;;;;;;;;;4964241;28;20043;-70
2022/07/21 02:53:09;;;;;;;4.03;2.88;;;;;;;;;;4964213;28;20045;-70
2022/07/21 02:55:36;;;;;;;4.75;2.75;;;;;;;;;;4964266;28;20503;-71
2022/07/21 02:58:14;;;;;;;6.50;3.20;;;;;;;;;;4963098;28;20023;-71
2022/07/21 03:00:43;;;;;;;5.65;3.00;;;;;;;;;;4963721;28;20047;-71
2022/07/21 03:03:09;;;;;;;5.80;3.08;;;;;;;;;;4964291;28;20039;-71
2022/07/21 03:05:35;;;;;;;4.47;2.70;;;;;;;;;;4964061;28;20038;-70
2022/07/21 03:08:01;;;;;;;5.72;2.63;;;;;;;;;;4962877;28;20038;-70
2022/07/21 03:10:26;;;;;;;7.20;3.08;;;;;;;;;;4964245;28;20042;-71
2022/07/21 03:12:52;;;;;;;4.63;3.00;;;;;;;;;;4963649;28;20333;-71
2022/07/21 03:15:17;;;;;;;5.53;2.88;;;;;;;;;;4962616;28;20042;-70
2022/07/21 03:17:43;;;;;;;3.42;2.95;;;;;;;;;;4963411;28;20083;-70
2022/07/21 03:20:09;;;;;;;5.68;2.97;;;;;;;;;;4963011;28;20062;-71
2022/07/21 03:22:35;;;;;;;6.22;3.10;;;;;;;;;;4963600;28;20094;-71
2022/07/21 03:25:01;;;;;;;6.25;3.10;;;;;;;;;;4963770;28;20060;-71
2022/07/21 03:27:26;;;;;;;6.57;3.30;;;;;;;;;;4960370;28;20121;-71
2022/07/21 03:29:51;;;;;;;6.10;3.00;;;;;;;;;;4962194;28;20046;-71
2022/07/21 03:32:17;;;;;;;5.10;2.75;;;;;;;;;;4963430;28;20033;-71
2022/07/21 03:34:45;;;;;;;6.45;2.92;;;;;;;;;;4963540;28;20058;-70
2022/07/21 03:37:11;;;;;;;3.38;2.90;;;;;;;;;;4960557;28;20053;-70
2022/07/21 03:39:36;;;;;;;6.03;3.00;;;;;;;;;;4963338;28;20050;-71
2022/07/21 03:42:01;;;;;;;4.95;3.20;;;;;;;;;;4962709;28;20031;-70
2022/07/21 03:44:27;;;;;;;6.63;3.35;;;;;;;;;;4963299;28;20118;-70
2022/07/21 03:46:52;;;;;;;8.23;2.85;;;;;;;;;;4963071;28;20058;-71
2022/07/21 03:49:18;;;;;;;3.95;3.35;;;;;;;;;;4963219;28;20034;-71
2022/07/21 03:51:43;;;;;;;3.47;3.17;;;;;;;;;;4962296;28;20039;-71
2022/07/21 03:54:09;;;;;;;3.75;3.08;;;;;;;;;;4961915;28;20673;-71
2022/07/21 03:56:34;;;;;;;7.20;3.85;;;;;;;;;;4963309;28;20035;-71
2022/07/21 03:58:59;;;;;;;8.85;3.42;;;;;;;;;;4963328;28;20536;-71
2022/07/21 04:01:25;;;;;;;4.07;2.78;;;;;;;;;;4962745;28;20154;-70
2022/07/21 04:03:50;;;;;;;7.43;3.58;;;;;;;;;;4963478;28;20043;-71
2022/07/21 04:06:16;;;;;;;7.18;3.63;;;;;;;;;;4965703;28;20042;-70
2022/07/21 04:08:41;;;;;;;6.95;3.45;;;;;;;;;;4961910;28;20053;-71
2022/07/21 04:11:07;;;;;;;8.80;3.25;;;;;;;;;;4963175;28;20057;-71
2022/07/21 04:13:32;;;;;;;5.43;3.63;;;;;;;;;;4962300;28;21098;-71
2022/07/21 04:15:57;;;;;;;6.07;3.50;;;;;;;;;;4962650;28;20047;-71
2022/07/21 04:18:23;;;;;;;6.97;3.67;;;;;;;;;;4962867;28;20035;-71
2022/07/21 04:20:48;;;;;;;15.00;4.25;;;;;;;;;;4962403;28;20105;-71
2022/07/21 04:23:14;;;;;;;5.20;3.45;;;;;;;;;;4962360;28;20583;-71
2022/07/21 04:25:39;;;;;;;3.53;3.22;;;;;;;;;;4961534;28;20050;-70
2022/07/21 04:28:06;;;;;;;4.95;4.00;;;;;;;;;;4962344;28;20189;-70
2022/07/21 04:30:31;;;;;;;5.57;3.65;;;;;;;;;;4961664;28;20038;-70
2022/07/21 04:32:57;;;;;;;5.85;3.92;;;;;;;;;;4962741;28;20559;-70
2022/07/21 04:35:23;;;;;;;9.70;4.28;;;;;;;;;;4961711;28;20753;-70
2022/07/21 04:37:49;;;;;;;4.20;3.80;;;;;;;;;;4962021;28;20034;-70
2022/07/21 04:40:15;;;;;;;6.35;4.05;;;;;;;;;;4961555;28;20045;-70
2022/07/21 04:42:41;;;;;;;6.32;3.70;;;;;;;;;;4962324;28;20030;-70
2022/07/21 04:45:09;;;;;;;8.10;4.00;;;;;;;;;;4962561;28;20034;-70
2022/07/21 04:47:46;;;;;;;4.60;3.97;;;;;;;;;;4961318;28;20566;-70
2022/07/21 04:50:12;;;;;;;9.10;3.72;;;;;;;;;;4962686;28;20878;-70
2022/07/21 04:52:38;;;;;;;5.25;3.75;;;;;;;;;;4962983;28;20515;-70
2022/07/21 04:55:04;;;;;;;11.43;4.10;;;;;;;;;;4962397;28;20043;-71
2022/07/21 04:57:29;;;;;;;5.32;3.92;;;;;;;;;;4961672;28;20046;-70
2022/07/21 04:59:54;;;;;;;6.38;4.32;;;;;;;;;;4962137;28;20042;-70
2022/07/21 05:02:20;;;;;;;7.15;5.15;;;;;;;;;;4961813;28;20038;-70
2022/07/21 05:04:45;;;;;;;12.55;5.93;;;;;;;;;;4962283;28;20097;-70
2022/07/21 05:07:11;;;;;;;8.07;5.90;;;;;;;;;;4959864;28;20043;-69
2022/07/21 05:09:36;;;;;;;7.68;5.93;;;;;;;;;;4962122;28;20591;-73
2022/07/21 05:12:02;;;;;;;7.25;6.15;;;;;;;;;;4959389;28;20577;-72
2022/07/21 05:14:27;;;;;;;10.57;6.40;;;;;;;;;;4963420;28;20035;-71
2022/07/21 05:16:53;;;;;;;9.13;6.47;;;;;;;;;;4962014;28;20893;-71
2022/07/21 05:19:18;;;;;;;6.90;6.07;;;;;;;;;;4959185;28;20511;-72
2022/07/21 05:21:45;;;;;;;7.70;6.03;;;;;;;;;;4959388;28;20076;-72
2022/07/21 05:24:10;;;;;;;9.30;7.05;;;;;;;;;;4957005;28;20054;-73
2022/07/21 05:26:36;;;;;;;9.35;7.03;;;;;;;;;;4959283;28;20069;-73
2022/07/21 05:29:02;;;;;;;11.88;6.47;;;;;;;;;;4959700;28;20035;-73
2022/07/21 05:31:27;;;;;;;10.60;6.40;;;;;;;;;;4957951;28;20035;-72
2022/07/21 05:33:53;;;;;;;8.98;7.13;;;;;;;;;;4959616;28;20093;-72
2022/07/21 05:36:18;;;;;;;10.73;6.78;;;;;;;;;;4960245;28;20739;-72
2022/07/21 05:38:44;;;;;;;9.80;7.13;;;;;;;;;;4959884;28;20929;-72
2022/07/21 05:41:09;;;;;;;12.00;6.82;;;;;;;;;;4960903;28;20101;-72
2022/07/21 05:43:34;;;;;;;12.25;7.30;;;;;;;;;;4960318;28;20042;-73
2022/07/21 05:46:00;;;;;;;9.40;7.43;;;;;;;;;;4961389;28;20136;-72
2022/07/21 05:48:26;;;;;;;10.50;7.18;;;;;;;;;;4964645;28;20054;-71
2022/07/21 05:50:51;;;;;;;8.60;7.10;;;;;;;;;;4963928;28;20054;-72
2022/07/21 05:53:16;;;;;;;10.30;6.57;;;;;;;;;;4964371;28;20046;-75
2022/07/21 05:55:42;;;;;;;8.77;6.88;;;;;;;;;;4964816;28;20046;-72
2022/07/21 05:58:07;;;;;;;7.72;6.97;;;;;;;;;;4964850;28;20053;-74
2022/07/21 06:00:33;;;;;;;11.20;7.50;;;;;;;;;;4963838;28;20043;-72
2022/07/21 06:02:58;;;;;;;7.88;7.03;;;;;;;;;;4964063;28;20053;-75
2022/07/21 06:05:23;;;;;;;11.45;7.43;;;;;;;;;;4963805;28;20061;-72
2022/07/21 06:07:49;;;;;;;10.27;7.32;;;;;;;;;;5636708;23;21036;-72
2022/07/21 06:10:15;;;;;;;9.93;6.43;;;;;;;;;;4984272;28;20403;-73
2022/07/21 06:12:41;;;;;;;13.95;8.00;;;;;;;;;;4984225;28;20820;-74
2022/07/21 06:15:07;;;;;;;9.48;6.95;;;;;;;;;;4983642;28;20125;-73
2022/07/21 06:17:39;;;;;;;12.85;7.25;;;;;;;;;;4982832;28;20034;-72
2022/07/21 06:20:07;;;;;;;10.07;7.13;;;;;;;;;;4984023;28;20526;-72
2022/07/21 06:22:32;;;;;;;7.63;6.45;;;;;;;;;;4984029;28;20026;-71
2022/07/21 06:24:58;;;;;;;9.00;7.35;;;;;;;;;;4982356;28;20376;-72
2022/07/21 06:27:23;;;;;;;8.63;7.10;;;;;;;;;;4982138;28;20509;-73
2022/07/21 06:29:48;;;;;;;10.68;7.68;;;;;;;;;;4984189;28;20039;-73
2022/07/21 06:32:14;;;;;;;9.70;6.97;;;;;;;;;;4982401;28;20462;-76
2022/07/21 06:34:39;;;;;;;7.60;6.25;;;;;;;;;;4983710;28;20045;-73
2022/07/21 06:37:04;;;;;;;11.13;7.13;;;;;;;;;;4964682;28;20521;-75
2022/07/21 06:39:30;;;;;;;8.75;6.68;;;;;;;;;;4982702;28;20130;-72
2022/07/21 06:41:55;;;;;;;9.82;6.82;;;;;;;;;;4983954;28;20038;-74
2022/07/21 06:44:25;;;;;;;7.63;6.78;;;;;;;;;;4983998;28;20033;-75
2022/07/21 06:46:51;;;;;;;6.82;5.95;;;;;;;;;;4982969;28;20050;-75
2022/07/21 06:49:16;;;;;;;11.27;6.07;;;;;;;;;;4987370;28;20026;-73
2022/07/21 06:51:42;;;;;;;10.57;6.25;;;;;;;;;;4994398;28;20049;-74
2022/07/21 06:54:07;;;;;;;7.60;6.22;;;;;;;;;;4984215;28;20137;-71
2022/07/21 06:56:33;;;;;;;10.10;6.75;;;;;;;;;;4983969;28;20108;-71
2022/07/21 06:58:58;;;;;;;8.65;6.30;;;;;;;;;;4979556;28;20403;-71
2022/07/21 07:01:24;;;;;;;7.65;5.95;;;;;;;;;;4981965;28;20100;-70
2022/07/21 07:03:49;;;;;;;6.55;5.88;;;;;;;;;;4981815;28;20034;-71
2022/07/21 07:06:14;;;;;;;7.25;6.20;;;;;;;;;;4980260;28;20423;-72
2022/07/21 07:08:40;;;;;;;7.13;5.68;;;;;;;;;;4980543;28;20046;-70
2022/07/21 07:11:06;;;;;;;10.07;6.68;;;;;;;;;;4981678;28;20061;-75
2022/07/21 07:13:31;;;;;;;10.95;6.65;;;;;;;;;;4981036;28;20038;-70
2022/07/21 07:15:57;;;;;;;8.27;6.43;;;;;;;;;;4983104;28;20042;-70
2022/07/21 07:18:24;;;;;;;9.35;6.50;;;;;;;;;;4981825;28;20125;-73
2022/07/21 07:20:50;;;;;;;9.05;6.95;;;;;;;;;;4980914;28;20048;-71
2022/07/21 07:23:15;;;;;;;7.93;6.35;;;;;;;;;;4982887;28;20045;-75
2022/07/21 07:28:47;;;;;;;12.75;7.05;;;;;;;;;;5731411;23;20070;-75
2022/07/21 07:31:13;;;;;;;9.15;6.80;;;;;;;;;;4943144;28;20047;-75
2022/07/21 07:33:38;;;;;;;11.45;7.43;;;;;;;;;;4943834;28;20054;-72
2022/07/21 07:36:03;;;;;;;10.18;6.95;;;;;;;;;;4943887;28;20039;-73
2022/07/21 07:38:29;;;;;;;10.07;6.65;;;;;;;;;;4943862;29;20440;-72
2022/07/21 07:40:54;;;;;;;10.00;6.95;;;;;;;;;;4943704;29;20533;-72
2022/07/21 07:43:20;;;;;;;10.18;7.80;;;;;;;;;;4925274;29;20035;-71
2022/07/21 07:45:45;;;;;;;7.85;7.05;;;;;;;;;;4943896;28;20053;-72
2022/07/21 07:48:11;;;;;;;12.20;7.70;;;;;;;;;;4943534;28;20062;-75
2022/07/21 07:50:36;;;;;;;10.40;7.20;;;;;;;;;;4943491;29;20130;-76
2022/07/21 07:53:02;;;;;;;8.93;6.72;;;;;;;;;;4942567;28;20416;-73
2022/07/21 07:55:28;;;;;;;13.80;7.47;;;;;;;;;;4943892;28;20261;-71
2022/07/21 07:57:53;;;;;;;10.27;6.90;;;;;;;;;;4943082;28;20098;-71
2022/07/21 08:00:19;;;;;;;13.95;7.40;;;;;;;;;;4943624;29;20054;-70
2022/07/21 08:02:45;;;;;;;10.23;7.30;;;;;;;;;;4943530;29;20134;-70
2022/07/21 08:05:11;;;;;;;11.93;7.60;;;;;;;;;;4943142;28;20544;-72
2022/07/21 08:07:38;;;;;;;10.75;6.80;;;;;;;;;;4943766;28;20523;-71
2022/07/21 08:10:08;;;;;;;10.38;8.02;;;;;;;;;;4942749;28;20117;-71
2022/07/21 08:12:34;;;;;;;11.73;7.40;;;;;;;;;;4943419;29;20062;-70
2022/07/21 08:15:00;;;;;;;10.73;7.50;;;;;;;;;;4942637;28;20043;-70
2022/07/21 08:17:25;;;;;;;9.48;7.20;;;;;;;;;;4943306;28;20264;-69
2022/07/21 08:19:51;;;;;;;10.38;7.45;;;;;;;;;;4943376;29;20082;-75
2022/07/21 08:22:16;;;;;;;11.90;7.65;;;;;;;;;;4943584;29;20039;-68
2022/07/21 08:24:42;;;;;;;10.27;7.78;;;;;;;;;;4943034;29;20035;-71
2022/07/21 08:27:07;;;;;;;36.67;7.68;;;;;;;;;;4925040;29;20559;-74
2022/07/21 08:29:34;;;;;;;17.65;8.20;;;;;;;;;;4943251;29;20134;-74
2022/07/21 08:36:13;;;;;;;10.43;7.35;;;;;;;;;;4846113;29;20627;-72
2022/07/21 08:38:38;;;;;;;12.90;7.30;;;;;;;;;;4830667;29;20049;-71
2022/07/21 08:41:04;;;;;;;10.55;7.30;;;;;;;;;;4935714;29;20047;-71
2022/07/21 08:43:30;;;;;;;14.82;8.18;;;;;;;;;;4943333;29;20504;-72
2022/07/21 08:45:56;;;;;;;10.45;7.45;;;;;;;;;;4943118;29;20058;-70
2022/07/21 08:48:26;;;;;;;14.52;8.30;;;;;;;;;;4942749;28;20183;-72
2022/07/21 08:50:52;;;;;;;11.40;6.75;;;;;;;;;;4942769;28;20031;-70
2022/07/21 08:53:17;;;;;;;12.98;7.22;;;;;;;;;;4943198;29;20065;-72
2022/07/21 08:55:43;;;;;;;13.93;8.00;;;;;;;;;;4942807;29;20408;-69
2022/07/21 08:58:10;;;;;;;13.85;7.00;;;;;;;;;;4941953;28;20043;-72
2022/07/21 09:00:36;;;;;;;10.88;7.22;;;;;;;;;;4943006;28;20071;-72
2022/07/21 09:03:09;;;;;;;13.50;7.43;;;;;;;;;;4925993;29;20463;-71
2022/07/21 09:05:35;;;;;;;10.90;7.53;;;;;;;;;;4942303;29;20035;-73
2022/07/21 09:08:01;;;;;;;10.02;6.45;;;;;;;;;;4941604;29;20399;-73
2022/07/21 09:10:30;;;;;;;10.00;6.22;;;;;;;;;;4941472;28;20398;-74
2022/07/21 09:12:59;;;;;;;13.43;7.75;;;;;;;;;;4942451;28;20134;-72
2022/07/21 09:15:27;;;;;;;10.07;7.35;;;;;;;;;;4942557;29;20035;-71
2022/07/21 09:18:14;;;;;;;11.20;7.05;;;;;;;;;;4942200;28;20039;-74
2022/07/21 09:20:49;;;;;;;9.32;7.13;;;;;;;;;;4942176;28;20160;-75
2022/07/21 09:23:17;;;;;;;10.90;6.80;;;;;;;;;;4946643;28;20126;-72
2022/07/21 09:25:54;;;;;;;15.73;7.72;;;;;;;;;;4929229;29;20074;-71
2022/07/21 09:28:22;;;;;;;11.15;7.35;;;;;;;;;;4945783;28;20177;-74
2022/07/21 09:30:50;;;;;;;11.35;6.78;;;;;;;;;;4946012;29;20043;-73
2022/07/21 09:33:48;;;;;;;11.40;7.20;;;;;;;;;;4945647;28;21033;-76
2022/07/21 09:36:17;;;;;;;8.98;6.78;;;;;;;;;;4945459;28;20051;-72
2022/07/21 09:38:48;;;;;;;10.40;7.47;;;;;;;;;;4946186;29;20554;-72
2022/07/21 09:41:19;;;;;;;10.20;6.63;;;;;;;;;;4946165;29;20094;-74
2022/07/21 09:43:53;;;;;;;9.00;6.45;;;;;;;;;;4945364;28;20110;-74
2022/07/21 09:46:30;;;;;;;9.02;6.55;;;;;;;;;;4946138;28;20045;-72
2022/07/21 09:49:00;;;;;;;13.98;6.60;;;;;;;;;;4945372;29;20043;-75
2022/07/21 09:51:28;;;;;;;7.57;6.55;;;;;;;;;;4928361;29;20102;-73
2022/07/21 09:54:04;;;;;;;9.48;7.00;;;;;;;;;;4946183;28;20058;-74
2022/07/21 09:56:32;;;;;;;13.13;7.20;;;;;;;;;;4930773;29;20530;-72
2022/07/21 09:58:59;;;;;;;8.73;7.05;;;;;;;;;;4947149;29;20046;-76
2022/07/21 10:01:26;;;;;;;9.30;6.45;;;;;;;;;;4945845;29;20046;-73
2022/07/21 10:03:53;;;;;;;9.60;6.75;;;;;;;;;;4928970;29;20070;-73
2022/07/21 10:06:23;;;;;;;12.90;7.25;;;;;;;;;;4944909;28;20031;-74
2022/07/21 10:08:49;;;;;;;10.82;7.55;;;;;;;;;;4945654;28;20054;-73
2022/07/21 10:11:15;;;;;;;11.13;6.90;;;;;;;;;;4945364;29;20079;-74
2022/07/21 10:13:41;;;;;;;8.88;7.00;;;;;;;;;;4928171;29;20467;-74
2022/07/21 10:16:11;;;;;;;15.65;7.45;;;;;;;;;;4943952;28;20054;-74
2022/07/21 10:18:46;;;;;;;11.65;7.47;;;;;;;;;;4945950;28;20126;-73
2022/07/21 10:21:31;;;;;;;11.80;7.80;;;;;;;;;;4928132;29;20071;-72
2022/07/21 10:23:57;;;;;;;11.68;7.60;;;;;;;;;;4945554;29;20046;-73
2022/07/21 10:26:23;;;;;;;9.35;7.28;;;;;;;;;;4945534;28;20043;-70
2022/07/21 10:28:49;;;;;;;14.13;7.90;;;;;;;;;;4942783;28;20035;-71
2022/07/21 10:31:23;;;;;;;14.48;9.25;;;;;;;;;;4945410;29;20039;-73
2022/07/21 10:33:48;;;;;;;13.15;7.40;;;;;;;;;;4944821;28;20042;-72
2022/07/21 10:36:26;;;;;;;11.23;8.40;;;;;;;;;;4945746;28;20452;-71
2022/07/21 10:39:17;;;;;;;10.85;7.63;;;;;;;;;;4944059;28;20560;-75
2022/07/21 10:41:45;;;;;;;11.02;8.25;;;;;;;;;;4944439;28;20511;-73
2022/07/21 10:44:30;;;;;;;14.30;8.20;;;;;;;;;;4945293;29;20028;-72
2022/07/21 10:47:21;;;;;;;11.38;8.23;;;;;;;;;;4944902;29;20058;-72
2022/07/21 10:49:46;;;;;;;11.95;7.80;;;;;;;;;;4927029;29;20402;-70
2022/07/21 10:52:45;;;;;;;11.10;8.23;;;;;;;;;;4927354;29;20098;-76
2022/07/21 10:55:13;;;;;;;11.10;8.32;;;;;;;;;;4944717;29;20544;-75
2022/07/21 10:57:42;;;;;;;10.88;8.63;;;;;;;;;;4944636;28;20085;-74
2022/07/21 11:00:18;;;;;;;12.27;8.30;;;;;;;;;;4942330;28;20039;-72
2022/07/21 11:02:47;;;;;;;17.10;8.82;;;;;;;;;;4944645;28;20046;-72
2022/07/21 11:05:12;;;;;;;11.45;8.40;;;;;;;;;;4944636;29;20518;-74
2022/07/21 11:08:09;;;;;;;10.80;8.50;;;;;;;;;;4944627;28;20051;-75
2022/07/21 11:10:36;;;;;;;9.45;7.50;;;;;;;;;;4943980;29;20043;-69
2022/07/21 11:13:02;;;;;;;9.77;7.95;;;;;;;;;;4944325;28;20494;-71
2022/07/21 11:15:52;;;;;;;11.57;8.27;;;;;;;;;;4944444;29;20062;-71
2022/07/21 11:18:20;;;;;;;9.20;8.15;;;;;;;;;;4944224;28;20063;-72
2022/07/21 11:21:17;;;;;;;15.48;8.02;;;;;;;;;;4944051;29;20168;-75
2022/07/21 11:23:46;;;;;;;11.35;7.55;;;;;;;;;;4891444;28;20043;-73
2022/07/21 11:26:14;;;;;;;12.60;8.10;;;;;;;;;;4944330;29;20165;-72
2022/07/21 11:28:40;;;;;;;13.88;8.40;;;;;;;;;;4944235;29;20049;-73
2022/07/21 11:31:14;;;;;;;13.95;9.10;;;;;;;;;;4922430;29;20035;-73
2022/07/21 11:33:44;;;;;;;13.93;8.13;;;;;;;;;;4943468;28;20035;-71
2022/07/21 11:36:09;;;;;;;10.90;8.43;;;;;;;;;;4926799;28;20478;-71
2022/07/21 11:38:35;;;;;;;13.27;8.40;;;;;;;;;;4944075;29;20035;-70
2022/07/21 11:41:17;;;;;;;15.85;7.85;;;;;;;;;;4939896;29;20048;-72
2022/07/21 11:43:45;;;;;;;14.30;8.88;;;;;;;;;;4926238;28;20047;-70
2022/07/21 11:46:12;;;;;;;21.33;8.40;;;;;;;;;;4927951;28;20057;-70
2022/07/21 11:48:38;;;;;;;11.38;8.70;;;;;;;;;;4943679;29;20043;-71
2022/07/21 11:51:04;;;;;;;12.90;9.82;;;;;;;;;;4943449;29;20416;-70
2022/07/21 11:53:31;;;;;;;12.63;9.90;;;;;;;;;;4943499;29;20043;-71
2022/07/21 11:55:56;;;;;;;17.60;9.40;;;;;;;;;;4942025;28;20124;-72
2022/07/21 11:58:22;;;;;;;14.20;9.05;;;;;;;;;;4943142;28;20477;-71
2022/07/21 12:00:48;;;;;;;13.38;9.90;;;;;;;;;;4943344;29;20101;-71
2022/07/21 12:03:14;;;;;;;13.32;10.60;;;;;;;;;;4944397;29;20039;-71
2022/07/21 12:05:41;;;;;;;12.52;10.32;;;;;;;;;;4943248;29;20276;-70
2022/07/21 12:08:07;;;;;;;18.38;10.13;;;;;;;;;;4946845;28;20074;-71
2022/07/21 12:10:33;;;;;;;10.68;9.07;;;;;;;;;;4938461;28;20117;-71
2022/07/21 12:13:05;;;;;;;16.30;9.85;;;;;;;;;;4942891;29;20046;-71
2022/07/21 12:15:33;;;;;;;12.38;8.98;;;;;;;;;;4942738;29;20043;-71
2022/07/21 12:18:07;;;;;;;12.40;9.10;;;;;;;;;;4941601;28;20036;-70
2022/07/21 12:20:41;;;;;;;10.55;8.55;;;;;;;;;;4942872;28;20035;-71
2022/07/21 12:23:23;;;;;;;10.75;9.30;;;;;;;;;;4943168;29;20070;-71
2022/07/21 12:25:49;;;;;;;11.88;8.38;;;;;;;;;;4942414;29;20051;-70
2022/07/21 12:28:15;;;;;;;9.88;8.05;;;;;;;;;;4941725;28;20043;-70
2022/07/21 12:30:41;;;;;;;10.98;8.20;;;;;;;;;;4942443;28;20043;-73
2022/07/21 12:33:17;;;;;;;12.02;8.23;;;;;;;;;;4942398;29;20072;-71
2022/07/21 12:35:46;;;;;;;11.35;8.07;;;;;;;;;;4952240;29;20046;-70
2022/07/21 12:38:16;;;;;;;12.50;8.38;;;;;;;;;;4943636;28;20603;-71
2022/07/21 12:40:56;;;;;;;11.30;7.60;;;;;;;;;;4923517;28;20035;-71
2022/07/21 12:43:25;;;;;;;10.55;7.45;;;;;;;;;;4924507;29;20039;-71
2022/07/21 12:45:54;;;;;;;12.23;7.45;;;;;;;;;;4942838;29;20133;-70
2022/07/21 12:48:31;;;;;;;8.30;7.07;;;;;;;;;;4942857;28;20027;-69
2022/07/21 12:51:07;;;;;;;14.85;7.07;;;;;;;;;;4940602;28;20043;-69
2022/07/21 12:53:34;;;;;;;8.82;7.18;;;;;;;;;;4942326;28;20039;-71
2022/07/21 12:56:00;;;;;;;8.75;7.40;;;;;;;;;;4927074;29;21441;-71
2022/07/21 12:58:26;;;;;;;11.05;7.50;;;;;;;;;;4946508;29;20028;-71
2022/07/21 13:00:52;;;;;;;10.98;7.28;;;;;;;;;;4945486;28;20717;-72
2022/07/21 13:03:17;;;;;;;9.05;7.45;;;;;;;;;;4946080;28;20023;-71
2022/07/21 13:05:43;;;;;;;10.75;7.50;;;;;;;;;;4946911;29;20078;-71
2022/07/21 13:08:08;;;;;;;12.50;7.63;;;;;;;;;;4928704;29;20240;-71
2022/07/21 13:10:33;;;;;;;11.90;7.75;;;;;;;;;;4946557;29;20777;-72
2022/07/21 13:12:59;;;;;;;13.40;7.25;;;;;;;;;;4945281;28;20042;-70
2022/07/21 13:15:24;;;;;;;13.10;7.90;;;;;;;;;;4946749;28;20124;-72
2022/07/21 13:17:50;;;;;;;8.88;7.25;;;;;;;;;;4946169;28;20035;-70
2022/07/21 13:20:15;;;;;;;9.63;7.80;;;;;;;;;;4946737;29;20563;-71
2022/07/21 13:22:41;;;;;;;11.02;7.68;;;;;;;;;;4945255;28;20043;-71
2022/07/21 13:25:09;;;;;;;9.68;7.18;;;;;;;;;;4946314;28;20144;-72
2022/07/21 13:27:34;;;;;;;12.40;7.65;;;;;;;;;;4946021;29;20041;-71
2022/07/21 13:30:01;;;;;;;9.50;7.90;;;;;;;;;;4946082;29;20404;-70
2022/07/21 13:32:27;;;;;;;12.13;7.82;;;;;;;;;;4945714;29;20043;-70
2022/07/21 13:34:52;;;;;;;11.30;8.13;;;;;;;;;;4945255;28;20053;-69
2022/07/21 13:37:18;;;;;;;12.75;8.18;;;;;;;;;;4946548;28;20106;-71
2022/07/21 13:39:43;;;;;;;12.38;8.30;;;;;;;;;;4946031;29;20078;-70
2022/07/21 13:42:08;;;;;;;11.15;9.13;;;;;;;;;;4945802;29;20035;-71
2022/07/21 13:44:34;;;;;;;9.13;7.40;;;;;;;;;;4944207;29;20122;-70
2022/07/21 13:47:00;;;;;;;11.57;8.35;;;;;;;;;;4945434;28;20039;-71
2022/07/21 13:49:26;;;;;;;9.60;7.78;;;;;;;;;;4928307;29;20031;-70
2022/07/21 13:51:51;;;;;;;10.35;8.15;;;;;;;;;;4945643;29;20118;-69
2022/07/21 13:54:17;;;;;;;10.07;8.75;;;;;;;;;;4945724;29;20393;-71
2022/07/21 13:56:43;;;;;;;10.85;8.23;;;;;;;;;;4944788;28;20118;-70
2022/07/21 13:59:08;;;;;;;10.43;8.10;;;;;;;;;;4945823;28;20046;-71
2022/07/21 14:01:34;;;;;;;11.93;8.55;;;;;;;;;;4945623;29;20039;-70
2022/07/21 14:03:59;;;;;;;13.25;9.05;;;;;;;;;;4945826;29;20038;-70
2022/07/21 14:06:25;;;;;;;11.05;8.13;;;;;;;;;;4944717;28;20042;-70
2022/07/21 14:08:51;;;;;;;12.02;8.52;;;;;;;;;;4944533;28;20517;-69
2022/07/21 14:11:16;;;;;;;12.02;9.13;;;;;;;;;;4944874;29;20045;-71
2022/07/21 14:13:42;;;;;;;9.82;8.80;;;;;;;;;;4928444;29;20047;-71
2022/07/21 14:16:08;;;;;;;12.13;9.35;;;;;;;;;;4944669;29;20031;-70
2022/07/21 14:18:33;;;;;;;11.40;9.45;;;;;;;;;;4944858;28;20027;-71
2022/07/21 14:20:59;;;;;;;19.00;9.52;;;;;;;;;;4945234;28;20039;-72
2022/07/21 14:23:25;;;;;;;13.73;9.40;;;;;;;;;;4945925;29;20042;-72
2022/07/21 14:25:51;;;;;;;9.90;8.90;;;;;;;;;;4945047;29;20043;-71
2022/07/21 14:28:17;;;;;;;13.13;9.30;;;;;;;;;;4944623;28;20448;-72
2022/07/21 14:30:42;;;;;;;16.05;9.80;;;;;;;;;;4945067;28;20484;-70
2022/07/21 14:33:08;;;;;;;11.65;9.70;;;;;;;;;;4945590;29;20050;-71
2022/07/21 14:35:34;;;;;;;12.05;9.20;;;;;;;;;;4945770;29;20060;-70
2022/07/21 14:37:59;;;;;;;12.73;9.48;;;;;;;;;;4945103;29;20035;-71
2022/07/21 14:40:25;;;;;;;11.60;9.65;;;;;;;;;;4944846;28;20126;-72
2022/07/21 14:42:54;;;;;;;12.35;9.75;;;;;;;;;;4944805;28;20114;-70
2022/07/21 14:45:22;;;;;;;16.65;11.55;;;;;;;;;;4945485;29;20035;-71